Time;durP1;ratioP1;P1;durP2;ratioP2;P2;SDS_P1;SDS_P2;PMS_P1;PMS_P2;Temp;Humidity;BMP_temperature;BMP_pressure;BME280_temperature;BME280_humidity;BME280_pressure;Samples;Min_cycle;Max_cycle;Signal;HPM_P1;HPM_P2
2023/08/15 00:01:47;;;;;;;9.13;6.67;;;;;;;;;;744412;187;818618;-63
2023/08/15 00:04:13;;;;;;;8.37;6.10;;;;;;;;;;731627;188;919179;-58
2023/08/15 00:06:39;;;;;;;13.93;7.33;;;;;;;;;;751973;183;920547;-58
2023/08/15 00:09:05;;;;;;;11.27;6.57;;;;;;;;;;751972;184;819250;-58
2023/08/15 00:11:31;;;;;;;10.23;7.10;;;;;;;;;;745398;184;817853;-63
2023/08/15 00:13:56;;;;;;;9.60;7.60;;;;;;;;;;743003;184;816794;-58
2023/08/15 00:16:23;;;;;;;8.07;6.65;;;;;;;;;;747313;183;919776;-59
2023/08/15 00:18:48;;;;;;;6.63;5.70;;;;;;;;;;746357;184;915968;-63
2023/08/15 00:21:14;;;;;;;9.57;6.63;;;;;;;;;;744908;184;920416;-64
2023/08/15 00:23:40;;;;;;;8.83;6.73;;;;;;;;;;746210;185;897035;-63
2023/08/15 00:26:06;;;;;;;14.63;7.20;;;;;;;;;;754271;185;933920;-58
2023/08/15 00:28:32;;;;;;;13.02;8.45;;;;;;;;;;747075;185;919536;-64
2023/08/15 00:30:58;;;;;;;8.97;6.60;;;;;;;;;;747214;183;919271;-59
2023/08/15 00:33:23;;;;;;;10.30;6.63;;;;;;;;;;750960;185;919213;-63
2023/08/15 00:35:49;;;;;;;9.50;7.70;;;;;;;;;;745669;184;920290;-58
2023/08/15 00:38:15;;;;;;;8.30;7.00;;;;;;;;;;746790;185;818472;-58
2023/08/15 00:40:41;;;;;;;6.90;6.20;;;;;;;;;;749528;185;919470;-63
2023/08/15 00:43:07;;;;;;;7.93;6.73;;;;;;;;;;743542;185;919014;-63
2023/08/15 00:45:33;;;;;;;7.33;6.13;;;;;;;;;;745845;185;919068;-64
2023/08/15 00:47:58;;;;;;;8.30;7.33;;;;;;;;;;742118;184;920541;-59
2023/08/15 00:50:24;;;;;;;7.65;6.72;;;;;;;;;;750884;184;838081;-57
2023/08/15 00:52:50;;;;;;;7.40;6.40;;;;;;;;;;752487;183;912222;-59
2023/08/15 00:55:16;;;;;;;9.73;6.17;;;;;;;;;;749629;184;920620;-58
2023/08/15 00:57:42;;;;;;;16.03;7.73;;;;;;;;;;751998;184;943865;-63
2023/08/15 01:00:08;;;;;;;12.60;7.10;;;;;;;;;;745720;185;921387;-58
2023/08/15 01:02:34;;;;;;;9.93;7.07;;;;;;;;;;747158;185;920579;-57
2023/08/15 01:05:00;;;;;;;8.03;6.70;;;;;;;;;;750872;184;919856;-63
2023/08/15 01:07:26;;;;;;;8.00;6.83;;;;;;;;;;743716;184;919819;-65
2023/08/15 01:09:52;;;;;;;8.27;5.97;;;;;;;;;;743478;185;922433;-57
2023/08/15 01:12:23;;;;;;;14.80;6.73;;;;;;;;;;749675;184;917478;-58
2023/08/15 01:15:03;;;;;;;6.87;5.97;;;;;;;;;;739499;188;919222;-64
2023/08/15 01:17:34;;;;;;;8.87;6.40;;;;;;;;;;749940;185;918674;-63
2023/08/15 01:20:00;;;;;;;9.40;6.63;;;;;;;;;;742340;188;917701;-58
2023/08/15 01:22:26;;;;;;;8.47;7.20;;;;;;;;;;742550;185;917747;-63
2023/08/15 01:24:51;;;;;;;7.73;6.70;;;;;;;;;;750285;185;881543;-59
2023/08/15 01:27:17;;;;;;;7.20;6.50;;;;;;;;;;743622;185;920466;-65
2023/08/15 01:29:43;;;;;;;7.63;6.87;;;;;;;;;;743485;185;918451;-60
2023/08/15 01:32:12;;;;;;;9.50;6.97;;;;;;;;;;745321;185;919066;-64
2023/08/15 01:34:38;;;;;;;14.40;7.73;;;;;;;;;;735715;188;926745;-64
2023/08/15 01:37:08;;;;;;;8.03;5.80;;;;;;;;;;723738;187;921723;-65
2023/08/15 01:39:33;;;;;;;9.40;6.50;;;;;;;;;;725675;190;920611;-59
2023/08/15 01:41:59;;;;;;;9.87;6.97;;;;;;;;;;724585;191;918740;-58
2023/08/15 01:44:25;;;;;;;8.00;7.10;;;;;;;;;;732286;187;917807;-58
2023/08/15 01:46:51;;;;;;;6.90;6.13;;;;;;;;;;739897;188;917038;-59
2023/08/15 01:49:16;;;;;;;9.13;7.00;;;;;;;;;;749617;185;920317;-64
2023/08/15 01:51:42;;;;;;;10.50;6.50;;;;;;;;;;745873;185;875887;-64
2023/08/15 01:54:08;;;;;;;13.30;6.30;;;;;;;;;;738152;188;915245;-58
2023/08/15 01:56:34;;;;;;;6.93;5.97;;;;;;;;;;728907;191;922066;-64
2023/08/15 01:59:00;;;;;;;9.60;6.43;;;;;;;;;;742250;188;919242;-63
2023/08/15 02:01:26;;;;;;;7.60;6.37;;;;;;;;;;733625;188;911609;-64
2023/08/15 02:03:51;;;;;;;7.43;6.63;;;;;;;;;;738383;187;1009666;-64
2023/08/15 02:06:17;;;;;;;10.05;6.45;;;;;;;;;;748093;186;884806;-63
2023/08/15 02:08:43;;;;;;;8.00;6.00;;;;;;;;;;747778;184;871777;-58
2023/08/15 02:11:09;;;;;;;11.50;7.03;;;;;;;;;;746083;185;918758;-59
2023/08/15 02:13:35;;;;;;;8.23;6.87;;;;;;;;;;748663;184;918385;-59
2023/08/15 02:16:01;;;;;;;8.27;6.10;;;;;;;;;;744117;184;915245;-64
2023/08/15 02:18:27;;;;;;;8.30;6.30;;;;;;;;;;745733;184;919596;-65
2023/08/15 02:20:53;;;;;;;9.20;7.13;;;;;;;;;;745875;184;919629;-59
2023/08/15 02:23:19;;;;;;;7.53;6.47;;;;;;;;;;749148;185;919879;-59
2023/08/15 02:25:45;;;;;;;7.00;6.10;;;;;;;;;;746757;185;919326;-58
2023/08/15 02:28:11;;;;;;;10.43;6.43;;;;;;;;;;745265;184;894961;-64
2023/08/15 02:30:37;;;;;;;6.87;6.17;;;;;;;;;;750367;184;919022;-59
2023/08/15 02:33:03;;;;;;;7.90;7.10;;;;;;;;;;744762;184;919092;-59
2023/08/15 02:35:29;;;;;;;8.70;6.90;;;;;;;;;;743701;185;921293;-59
2023/08/15 02:37:55;;;;;;;8.63;6.23;;;;;;;;;;749695;184;930874;-59
2023/08/15 02:40:21;;;;;;;8.07;6.10;;;;;;;;;;743943;184;918900;-59
2023/08/15 02:42:46;;;;;;;9.20;6.80;;;;;;;;;;744897;184;919293;-58
2023/08/15 02:45:12;;;;;;;7.77;6.87;;;;;;;;;;744736;184;918837;-60
2023/08/15 02:47:38;;;;;;;8.97;6.83;;;;;;;;;;751973;184;919548;-66
2023/08/15 02:50:04;;;;;;;8.10;6.67;;;;;;;;;;747065;184;921892;-64
2023/08/15 02:52:30;;;;;;;7.60;6.57;;;;;;;;;;745588;185;865366;-64
2023/08/15 02:54:56;;;;;;;7.93;6.53;;;;;;;;;;750242;184;917682;-59
2023/08/15 02:57:22;;;;;;;8.43;6.80;;;;;;;;;;744195;184;919204;-65
2023/08/15 02:59:48;;;;;;;9.80;7.40;;;;;;;;;;746629;184;918639;-65
2023/08/15 03:02:15;;;;;;;6.93;6.00;;;;;;;;;;750245;185;919074;-59
2023/08/15 03:04:39;;;;;;;7.10;6.40;;;;;;;;;;745293;185;919182;-59
2023/08/15 03:07:05;;;;;;;7.83;6.40;;;;;;;;;;743651;184;919916;-65
2023/08/15 03:09:31;;;;;;;7.77;6.30;;;;;;;;;;748077;185;917388;-64
2023/08/15 03:11:57;;;;;;;7.60;6.60;;;;;;;;;;736198;186;921203;-66
2023/08/15 03:14:23;;;;;;;10.40;7.03;;;;;;;;;;744013;186;925424;-65
2023/08/15 03:16:49;;;;;;;15.33;7.90;;;;;;;;;;734453;188;815321;-60
2023/08/15 03:19:15;;;;;;;8.57;6.73;;;;;;;;;;742661;190;816511;-59
2023/08/15 03:21:40;;;;;;;7.40;6.00;;;;;;;;;;747486;184;919178;-65
2023/08/15 03:24:07;;;;;;;9.03;6.43;;;;;;;;;;747618;184;817870;-59
2023/08/15 03:26:32;;;;;;;8.60;6.83;;;;;;;;;;749316;186;817038;-60
2023/08/15 03:28:58;;;;;;;7.70;6.60;;;;;;;;;;750569;185;919104;-60
2023/08/15 03:31:24;;;;;;;10.50;6.30;;;;;;;;;;740603;184;919700;-59
2023/08/15 03:33:50;;;;;;;8.43;6.00;;;;;;;;;;751717;183;922308;-66
2023/08/15 03:36:16;;;;;;;8.20;7.40;;;;;;;;;;749197;183;919731;-66
2023/08/15 03:38:42;;;;;;;8.60;7.70;;;;;;;;;;730827;187;920516;-60
2023/08/15 03:41:07;;;;;;;8.03;6.50;;;;;;;;;;739165;188;921147;-65
2023/08/15 03:43:33;;;;;;;8.03;5.87;;;;;;;;;;754124;184;919662;-66
2023/08/15 03:45:59;;;;;;;7.57;6.33;;;;;;;;;;747971;184;924660;-65
2023/08/15 03:48:25;;;;;;;6.50;5.83;;;;;;;;;;747468;184;818686;-60
2023/08/15 03:50:51;;;;;;;8.27;7.10;;;;;;;;;;749580;184;918459;-65
2023/08/15 03:53:17;;;;;;;8.97;6.00;;;;;;;;;;740915;185;816092;-59
2023/08/15 03:55:42;;;;;;;7.13;6.20;;;;;;;;;;744304;184;814116;-66
2023/08/15 03:58:08;;;;;;;9.17;6.00;;;;;;;;;;749513;184;913504;-67
2023/08/15 04:00:34;;;;;;;10.00;6.47;;;;;;;;;;751771;184;917897;-68
2023/08/15 04:03:00;;;;;;;7.90;6.83;;;;;;;;;;746745;184;919046;-59
2023/08/15 04:05:26;;;;;;;7.73;6.93;;;;;;;;;;753331;183;919182;-61
2023/08/15 04:07:52;;;;;;;9.37;6.40;;;;;;;;;;742112;186;918209;-59
2023/08/15 04:10:18;;;;;;;8.60;7.53;;;;;;;;;;729349;190;918095;-58
2023/08/15 04:12:44;;;;;;;7.70;6.97;;;;;;;;;;734370;187;921274;-60
2023/08/15 04:15:10;;;;;;;10.97;7.47;;;;;;;;;;738565;187;919026;-66
2023/08/15 04:17:36;;;;;;;7.90;6.47;;;;;;;;;;733250;185;918376;-67
2023/08/15 04:20:03;;;;;;;8.33;6.47;;;;;;;;;;746135;184;918040;-66
2023/08/15 04:22:28;;;;;;;6.70;6.10;;;;;;;;;;752686;184;916876;-60
2023/08/15 04:24:54;;;;;;;9.83;7.50;;;;;;;;;;746825;184;918335;-60
2023/08/15 04:27:20;;;;;;;7.50;6.70;;;;;;;;;;746430;184;917589;-66
2023/08/15 04:29:45;;;;;;;6.83;6.07;;;;;;;;;;753593;184;918639;-60
2023/08/15 04:32:11;;;;;;;13.48;7.30;;;;;;;;;;746932;184;919521;-59
2023/08/15 04:34:37;;;;;;;9.23;6.83;;;;;;;;;;746752;184;917652;-66
2023/08/15 04:37:03;;;;;;;12.37;7.20;;;;;;;;;;746472;183;920772;-61
2023/08/15 04:39:29;;;;;;;8.10;6.57;;;;;;;;;;749860;184;917638;-67
2023/08/15 04:41:55;;;;;;;9.17;8.20;;;;;;;;;;744942;184;919523;-60
2023/08/15 04:44:20;;;;;;;11.87;7.53;;;;;;;;;;751735;184;927599;-66
2023/08/15 04:46:46;;;;;;;13.00;7.87;;;;;;;;;;738706;188;919954;-66
2023/08/15 04:49:12;;;;;;;12.87;8.60;;;;;;;;;;738339;186;918504;-60
2023/08/15 04:51:39;;;;;;;9.10;8.20;;;;;;;;;;732611;186;918360;-60
2023/08/15 04:54:04;;;;;;;12.63;8.63;;;;;;;;;;743933;186;919181;-60
2023/08/15 04:56:30;;;;;;;11.80;8.00;;;;;;;;;;744806;184;938646;-66
2023/08/15 04:58:56;;;;;;;13.35;9.55;;;;;;;;;;748395;184;850499;-66
2023/08/15 05:01:22;;;;;;;15.37;8.60;;;;;;;;;;750261;185;920534;-66
2023/08/15 05:03:48;;;;;;;10.20;9.10;;;;;;;;;;744575;186;817241;-66
2023/08/15 05:06:14;;;;;;;10.43;9.33;;;;;;;;;;736326;187;919126;-66
2023/08/15 05:08:40;;;;;;;10.23;9.17;;;;;;;;;;729543;191;919387;-60
2023/08/15 05:11:05;;;;;;;15.73;10.80;;;;;;;;;;736681;191;918560;-59
2023/08/15 05:13:31;;;;;;;13.60;12.13;;;;;;;;;;735835;187;918652;-60
2023/08/15 05:15:57;;;;;;;14.73;13.07;;;;;;;;;;739617;189;919220;-60
2023/08/15 05:18:23;;;;;;;13.13;11.73;;;;;;;;;;738742;186;918626;-60
2023/08/15 05:20:49;;;;;;;14.27;11.67;;;;;;;;;;736250;188;864169;-60
2023/08/15 05:23:15;;;;;;;16.27;12.30;;;;;;;;;;741502;185;920706;-66
2023/08/15 05:25:43;;;;;;;16.30;12.07;;;;;;;;;;755038;185;924450;-60
2023/08/15 05:28:07;;;;;;;13.77;12.23;;;;;;;;;;736109;186;920629;-66
2023/08/15 05:30:33;;;;;;;14.87;11.37;;;;;;;;;;740102;187;918308;-66
2023/08/15 05:32:59;;;;;;;11.30;10.17;;;;;;;;;;736508;188;930422;-59
2023/08/15 05:35:24;;;;;;;13.20;11.60;;;;;;;;;;746855;185;816552;-59
2023/08/15 05:37:50;;;;;;;14.07;10.93;;;;;;;;;;741663;184;1023354;-59
2023/08/15 05:40:16;;;;;;;13.23;9.50;;;;;;;;;;742843;185;915622;-60
2023/08/15 05:42:42;;;;;;;19.43;9.80;;;;;;;;;;756693;183;888975;-59
2023/08/15 05:45:09;;;;;;;15.27;9.70;;;;;;;;;;746405;184;916569;-60
2023/08/15 05:47:34;;;;;;;11.93;9.13;;;;;;;;;;744365;185;918186;-59
2023/08/15 05:50:00;;;;;;;11.30;8.80;;;;;;;;;;749934;184;920565;-66
2023/08/15 05:52:27;;;;;;;11.07;8.67;;;;;;;;;;747238;184;922413;-59
2023/08/15 05:54:53;;;;;;;11.10;8.70;;;;;;;;;;746371;184;919675;-60
2023/08/15 05:57:19;;;;;;;12.00;9.07;;;;;;;;;;745005;185;817694;-60
2023/08/15 05:59:45;;;;;;;11.80;9.17;;;;;;;;;;750003;184;919208;-66
2023/08/15 06:02:11;;;;;;;18.57;9.90;;;;;;;;;;745184;184;919878;-66
2023/08/15 06:04:36;;;;;;;13.87;8.73;;;;;;;;;;743831;185;850077;-67
2023/08/15 06:07:03;;;;;;;10.10;7.73;;;;;;;;;;751031;185;918473;-67
2023/08/15 06:09:29;;;;;;;9.27;8.37;;;;;;;;;;746938;185;919285;-61
2023/08/15 06:11:56;;;;;;;10.63;8.10;;;;;;;;;;743575;185;918847;-61
2023/08/15 06:14:22;;;;;;;9.23;8.03;;;;;;;;;;746722;185;896057;-59
2023/08/15 06:16:48;;;;;;;10.10;7.13;;;;;;;;;;742642;185;918536;-61
2023/08/15 06:19:13;;;;;;;8.00;7.20;;;;;;;;;;745166;185;918783;-66
2023/08/15 06:21:41;;;;;;;10.77;8.37;;;;;;;;;;743388;185;920015;-66
2023/08/15 06:24:09;;;;;;;8.37;6.57;;;;;;;;;;752641;183;715202;-66
2023/08/15 06:26:34;;;;;;;7.70;6.63;;;;;;;;;;746222;183;920754;-65
2023/08/15 06:29:00;;;;;;;9.77;8.30;;;;;;;;;;745247;184;918317;-66
2023/08/15 06:31:26;;;;;;;8.30;6.70;;;;;;;;;;752843;185;918819;-61
2023/08/15 06:33:51;;;;;;;7.30;6.60;;;;;;;;;;746628;185;919426;-61
2023/08/15 06:36:17;;;;;;;11.93;6.60;;;;;;;;;;748549;184;904749;-61
2023/08/15 06:38:43;;;;;;;8.70;6.20;;;;;;;;;;751614;185;737421;-60
2023/08/15 06:41:09;;;;;;;8.13;6.10;;;;;;;;;;744654;185;917724;-61
2023/08/15 06:43:35;;;;;;;8.53;7.63;;;;;;;;;;745499;186;919075;-65
2023/08/15 06:46:01;;;;;;;6.70;5.80;;;;;;;;;;743331;188;918358;-66
2023/08/15 06:48:26;;;;;;;9.37;6.23;;;;;;;;;;750693;185;911890;-61
2023/08/15 06:50:52;;;;;;;12.00;7.10;;;;;;;;;;746334;185;918481;-61
2023/08/15 06:53:18;;;;;;;8.98;7.22;;;;;;;;;;749322;184;915032;-65
2023/08/15 06:55:44;;;;;;;8.13;6.33;;;;;;;;;;756237;184;921403;-67
2023/08/15 06:58:10;;;;;;;10.10;6.60;;;;;;;;;;735938;188;921045;-66
2023/08/15 07:00:36;;;;;;;11.40;6.80;;;;;;;;;;737727;188;918631;-67
2023/08/15 07:03:02;;;;;;;8.03;4.20;;;;;;;;;;757366;185;817027;-65
2023/08/15 07:05:27;;;;;;;6.62;4.78;;;;;;;;;;742900;185;917522;-61
2023/08/15 07:07:54;;;;;;;24.47;5.60;;;;;;;;;;744541;185;918696;-61
2023/08/15 07:10:20;;;;;;;7.70;5.43;;;;;;;;;;747630;185;918916;-65
2023/08/15 07:12:45;;;;;;;8.67;4.90;;;;;;;;;;754742;185;894326;-60
2023/08/15 07:15:11;;;;;;;7.90;5.03;;;;;;;;;;748336;184;940432;-61
2023/08/15 07:17:37;;;;;;;5.70;5.10;;;;;;;;;;744609;185;925339;-61
2023/08/15 07:20:04;;;;;;;5.53;4.60;;;;;;;;;;751881;185;915626;-67
2023/08/15 07:22:29;;;;;;;7.03;5.50;;;;;;;;;;747422;185;919220;-61
2023/08/15 07:24:55;;;;;;;5.73;4.87;;;;;;;;;;744935;186;919255;-62
2023/08/15 07:27:20;;;;;;;6.73;5.73;;;;;;;;;;748446;185;919457;-61
2023/08/15 07:29:46;;;;;;;8.97;5.33;;;;;;;;;;743313;185;816828;-61
2023/08/15 07:32:12;;;;;;;5.10;4.57;;;;;;;;;;745130;185;919563;-61
2023/08/15 07:34:38;;;;;;;7.60;4.67;;;;;;;;;;748666;185;919159;-60
2023/08/15 07:37:04;;;;;;;5.80;4.17;;;;;;;;;;742179;186;818973;-67
2023/08/15 07:39:30;;;;;;;6.50;4.57;;;;;;;;;;749893;183;862252;-61
2023/08/15 07:41:55;;;;;;;5.90;4.40;;;;;;;;;;744397;185;919127;-62
2023/08/15 07:44:21;;;;;;;4.57;3.60;;;;;;;;;;751419;185;827422;-67
2023/08/15 07:46:47;;;;;;;5.00;3.80;;;;;;;;;;747500;185;913456;-68
2023/08/15 07:49:13;;;;;;;4.73;4.10;;;;;;;;;;748489;183;916998;-60
2023/08/15 07:51:39;;;;;;;6.67;4.20;;;;;;;;;;735287;185;919236;-68
2023/08/15 07:54:05;;;;;;;8.23;3.80;;;;;;;;;;748681;184;919717;-67
2023/08/15 07:56:33;;;;;;;4.20;3.13;;;;;;;;;;746148;184;919209;-60
2023/08/15 07:58:57;;;;;;;4.70;3.87;;;;;;;;;;749024;185;919790;-60
2023/08/15 08:01:22;;;;;;;6.70;4.40;;;;;;;;;;744912;185;924225;-67
2023/08/15 08:03:48;;;;;;;4.75;3.62;;;;;;;;;;746244;184;919566;-65
2023/08/15 08:06:14;;;;;;;8.27;4.10;;;;;;;;;;747403;184;919506;-60
2023/08/15 08:08:40;;;;;;;4.70;3.12;;;;;;;;;;742123;186;920813;-60
2023/08/15 08:11:06;;;;;;;7.77;4.57;;;;;;;;;;744489;185;919206;-66
2023/08/15 08:13:32;;;;;;;6.07;4.20;;;;;;;;;;747824;184;919035;-66
2023/08/15 08:15:57;;;;;;;6.13;4.47;;;;;;;;;;750035;185;816550;-66
2023/08/15 08:18:23;;;;;;;6.53;4.70;;;;;;;;;;745416;184;919158;-65
2023/08/15 08:20:50;;;;;;;7.07;4.20;;;;;;;;;;746883;184;920035;-58
2023/08/15 08:23:15;;;;;;;4.80;3.60;;;;;;;;;;751464;184;918803;-59
2023/08/15 08:25:41;;;;;;;4.80;3.73;;;;;;;;;;745184;184;916809;-57
2023/08/15 08:28:07;;;;;;;5.00;3.90;;;;;;;;;;746011;184;924817;-59
2023/08/15 08:30:34;;;;;;;9.43;4.23;;;;;;;;;;750995;184;919555;-66
2023/08/15 08:32:58;;;;;;;4.87;3.60;;;;;;;;;;737851;185;919340;-59
2023/08/15 08:35:24;;;;;;;4.90;3.90;;;;;;;;;;742954;185;918936;-59
2023/08/15 08:37:51;;;;;;;5.87;4.37;;;;;;;;;;738843;188;915204;-59
2023/08/15 08:40:17;;;;;;;6.63;3.60;;;;;;;;;;750645;185;920047;-67
2023/08/15 08:42:42;;;;;;;7.40;4.10;;;;;;;;;;746126;185;820113;-66
2023/08/15 08:45:09;;;;;;;5.10;4.37;;;;;;;;;;745545;185;919609;-66
2023/08/15 08:47:34;;;;;;;6.73;3.40;;;;;;;;;;751310;185;920529;-65
2023/08/15 08:50:00;;;;;;;6.07;3.73;;;;;;;;;;746733;185;922152;-59
2023/08/15 08:52:27;;;;;;;6.60;3.67;;;;;;;;;;742723;185;916252;-68
2023/08/15 08:54:53;;;;;;;5.83;4.20;;;;;;;;;;752939;185;920457;-66
2023/08/15 08:57:19;;;;;;;4.80;3.90;;;;;;;;;;731380;186;925715;-66
2023/08/15 08:59:45;;;;;;;4.57;3.83;;;;;;;;;;737833;186;920288;-67
2023/08/15 09:02:10;;;;;;;5.67;3.80;;;;;;;;;;740258;188;919242;-67
2023/08/15 09:04:36;;;;;;;5.40;3.97;;;;;;;;;;739464;188;922267;-66
2023/08/15 09:07:02;;;;;;;6.80;4.47;;;;;;;;;;736015;188;919916;-67
2023/08/15 09:09:28;;;;;;;6.90;3.57;;;;;;;;;;739393;188;912677;-61
2023/08/15 09:11:54;;;;;;;8.43;3.30;;;;;;;;;;749127;186;820928;-60
2023/08/15 09:14:20;;;;;;;7.27;3.80;;;;;;;;;;738216;185;818648;-59
2023/08/15 09:16:46;;;;;;;5.33;3.20;;;;;;;;;;739388;188;921437;-61
2023/08/15 09:19:11;;;;;;;8.30;3.70;;;;;;;;;;746986;186;919065;-59
2023/08/15 09:21:37;;;;;;;6.40;4.13;;;;;;;;;;743191;186;916709;-67
2023/08/15 09:24:03;;;;;;;5.80;3.97;;;;;;;;;;744838;185;919063;-67
2023/08/15 09:26:32;;;;;;;6.45;3.95;;;;;;;;;;750238;184;919387;-67
2023/08/15 09:28:58;;;;;;;4.20;3.50;;;;;;;;;;750601;184;820797;-60
2023/08/15 09:31:24;;;;;;;6.53;3.10;;;;;;;;;;732872;187;919765;-68
2023/08/15 09:33:50;;;;;;;6.07;4.13;;;;;;;;;;755624;184;919501;-68
2023/08/15 09:36:15;;;;;;;4.50;3.30;;;;;;;;;;751736;184;918717;-59
2023/08/15 09:38:41;;;;;;;4.80;3.87;;;;;;;;;;745479;184;920817;-60
2023/08/15 09:41:10;;;;;;;5.72;3.55;;;;;;;;;;746080;183;919255;-59
2023/08/15 09:43:36;;;;;;;4.57;4.10;;;;;;;;;;750624;184;816112;-59
2023/08/15 09:46:02;;;;;;;4.90;3.70;;;;;;;;;;747709;184;918824;-59
2023/08/15 09:48:30;;;;;;;4.83;3.80;;;;;;;;;;745974;185;911012;-59
2023/08/15 09:50:56;;;;;;;8.80;4.30;;;;;;;;;;744172;185;918721;-60
2023/08/15 09:53:22;;;;;;;6.00;3.70;;;;;;;;;;752151;184;898378;-65
2023/08/15 09:55:48;;;;;;;4.73;3.70;;;;;;;;;;749833;184;919776;-69
2023/08/15 09:58:13;;;;;;;5.37;3.77;;;;;;;;;;750315;184;941986;-67
2023/08/15 10:00:39;;;;;;;5.73;4.20;;;;;;;;;;745692;186;855015;-60
2023/08/15 10:03:20;;;;;;;9.13;4.47;;;;;;;;;;738355;186;917620;-61
2023/08/15 10:05:46;;;;;;;4.00;3.40;;;;;;;;;;742866;185;934198;-60
2023/08/15 10:08:12;;;;;;;5.77;4.13;;;;;;;;;;743691;185;919371;-60
2023/08/15 10:10:38;;;;;;;6.13;3.87;;;;;;;;;;749284;185;922132;-66
2023/08/15 10:13:04;;;;;;;4.80;4.20;;;;;;;;;;752126;185;816867;-60
2023/08/15 10:15:30;;;;;;;8.20;4.12;;;;;;;;;;738669;188;918648;-68
2023/08/15 10:17:57;;;;;;;5.77;3.37;;;;;;;;;;753707;183;919213;-61
2023/08/15 10:20:21;;;;;;;7.97;4.10;;;;;;;;;;749209;185;922567;-68
2023/08/15 10:22:49;;;;;;;4.57;3.70;;;;;;;;;;744472;184;895603;-60
2023/08/15 10:25:20;;;;;;;5.20;4.20;;;;;;;;;;745688;183;919680;-62
2023/08/15 10:27:46;;;;;;;5.37;4.03;;;;;;;;;;750132;184;918297;-60
2023/08/15 10:30:12;;;;;;;6.37;4.43;;;;;;;;;;744142;184;917993;-62
2023/08/15 10:32:38;;;;;;;4.10;3.33;;;;;;;;;;745305;185;919739;-61
2023/08/15 10:35:05;;;;;;;8.20;4.30;;;;;;;;;;746971;184;917075;-68
2023/08/15 10:37:30;;;;;;;5.50;4.07;;;;;;;;;;740500;186;918299;-60
2023/08/15 10:40:02;;;;;;;5.20;4.10;;;;;;;;;;737440;188;919159;-60
2023/08/15 10:42:28;;;;;;;5.60;3.80;;;;;;;;;;741002;187;925649;-68
2023/08/15 10:44:59;;;;;;;5.10;3.87;;;;;;;;;;749764;184;918049;-61
2023/08/15 10:47:25;;;;;;;5.70;4.00;;;;;;;;;;749421;186;918273;-69
2023/08/15 10:49:51;;;;;;;7.27;4.30;;;;;;;;;;735014;189;818453;-67
2023/08/15 10:52:17;;;;;;;6.83;3.90;;;;;;;;;;736348;186;918757;-68
2023/08/15 10:54:43;;;;;;;5.40;3.77;;;;;;;;;;756029;185;908739;-61
2023/08/15 10:57:08;;;;;;;6.47;4.10;;;;;;;;;;740840;184;920357;-61
2023/08/15 10:59:34;;;;;;;4.87;4.27;;;;;;;;;;734608;188;910839;-68
2023/08/15 11:02:00;;;;;;;6.30;4.13;;;;;;;;;;747187;186;920583;-62
2023/08/15 11:04:26;;;;;;;4.60;3.87;;;;;;;;;;744116;185;925118;-63
2023/08/15 11:06:52;;;;;;;5.67;4.20;;;;;;;;;;744714;184;916362;-62
2023/08/15 11:09:18;;;;;;;4.43;4.00;;;;;;;;;;750700;185;813720;-65
2023/08/15 11:11:44;;;;;;;7.93;4.00;;;;;;;;;;743112;185;917088;-62
2023/08/15 11:14:20;;;;;;;5.80;3.90;;;;;;;;;;741679;185;921133;-63
2023/08/15 11:16:46;;;;;;;4.83;4.27;;;;;;;;;;744050;185;919615;-62
2023/08/15 11:19:12;;;;;;;5.30;4.37;;;;;;;;;;749994;186;818240;-67
2023/08/15 11:21:38;;;;;;;6.20;4.20;;;;;;;;;;741467;186;919355;-67
2023/08/15 11:24:04;;;;;;;6.27;4.13;;;;;;;;;;740504;186;918064;-68
2023/08/15 11:26:30;;;;;;;5.70;3.90;;;;;;;;;;737206;188;919169;-66
2023/08/15 11:28:55;;;;;;;10.00;4.27;;;;;;;;;;735582;189;921101;-66
2023/08/15 11:31:21;;;;;;;5.47;4.30;;;;;;;;;;728674;187;918464;-67
2023/08/15 11:33:47;;;;;;;4.60;4.10;;;;;;;;;;737623;189;917456;-66
2023/08/15 11:36:13;;;;;;;8.97;4.80;;;;;;;;;;738499;188;916844;-66
2023/08/15 11:38:39;;;;;;;8.37;4.83;;;;;;;;;;749584;184;917897;-60
2023/08/15 11:41:05;;;;;;;10.40;4.40;;;;;;;;;;747492;184;824815;-65
2023/08/15 11:43:30;;;;;;;4.97;4.47;;;;;;;;;;749248;184;854986;-61
2023/08/15 11:45:56;;;;;;;6.10;4.30;;;;;;;;;;748740;183;913352;-67
2023/08/15 11:48:22;;;;;;;6.57;4.63;;;;;;;;;;742608;184;916851;-65
2023/08/15 11:50:50;;;;;;;6.80;4.60;;;;;;;;;;745594;185;925210;-62
2023/08/15 11:53:14;;;;;;;11.43;5.10;;;;;;;;;;754692;184;920298;-60
2023/08/15 11:55:40;;;;;;;5.83;4.33;;;;;;;;;;746628;185;823248;-66
2023/08/15 11:58:20;;;;;;;6.67;5.53;;;;;;;;;;743914;188;920605;-61
2023/08/15 12:00:46;;;;;;;10.07;4.93;;;;;;;;;;745723;185;918129;-66
2023/08/15 12:03:12;;;;;;;7.40;5.00;;;;;;;;;;752161;184;919539;-60
2023/08/15 12:05:38;;;;;;;7.23;4.40;;;;;;;;;;749636;184;918995;-61
2023/08/15 12:08:04;;;;;;;6.70;5.30;;;;;;;;;;746546;185;918687;-66
2023/08/15 12:10:30;;;;;;;5.43;4.90;;;;;;;;;;751990;185;918578;-66
2023/08/15 12:12:55;;;;;;;7.60;4.73;;;;;;;;;;746415;185;917693;-60
2023/08/15 12:15:21;;;;;;;7.77;4.53;;;;;;;;;;745165;185;917821;-66
2023/08/15 12:17:47;;;;;;;6.47;4.53;;;;;;;;;;747989;185;920365;-60
2023/08/15 12:20:14;;;;;;;7.10;4.73;;;;;;;;;;746485;185;918543;-66
2023/08/15 12:22:39;;;;;;;6.67;5.27;;;;;;;;;;743647;185;919550;-60
2023/08/15 12:25:05;;;;;;;6.33;4.70;;;;;;;;;;746624;184;917727;-61
2023/08/15 12:27:31;;;;;;;5.30;4.80;;;;;;;;;;739435;188;818516;-66
2023/08/15 12:29:56;;;;;;;5.27;4.77;;;;;;;;;;736490;185;819097;-60
2023/08/15 12:32:22;;;;;;;7.90;4.90;;;;;;;;;;744712;184;917998;-66
2023/08/15 12:34:48;;;;;;;10.20;5.40;;;;;;;;;;752854;185;942533;-60
2023/08/15 12:37:14;;;;;;;7.03;4.37;;;;;;;;;;748689;185;919092;-60
2023/08/15 12:39:40;;;;;;;8.97;5.10;;;;;;;;;;751289;185;815914;-60
2023/08/15 12:42:06;;;;;;;7.07;4.90;;;;;;;;;;744509;188;817720;-65
2023/08/15 12:44:32;;;;;;;6.20;5.10;;;;;;;;;;751425;184;849947;-66
2023/08/15 12:46:57;;;;;;;7.00;5.27;;;;;;;;;;745292;184;919631;-66
2023/08/15 12:49:23;;;;;;;5.57;4.80;;;;;;;;;;751682;184;918914;-64
2023/08/15 12:51:49;;;;;;;5.37;4.87;;;;;;;;;;747602;184;924893;-61
2023/08/15 12:54:15;;;;;;;8.83;5.40;;;;;;;;;;749601;185;920216;-61
2023/08/15 12:56:41;;;;;;;6.10;4.80;;;;;;;;;;742824;186;919424;-61
2023/08/15 12:59:07;;;;;;;6.57;4.70;;;;;;;;;;749752;184;918921;-66
2023/08/15 13:01:32;;;;;;;6.43;5.40;;;;;;;;;;746525;184;855230;-59
2023/08/15 13:03:58;;;;;;;5.30;4.80;;;;;;;;;;752132;184;920562;-60
2023/08/15 13:06:24;;;;;;;6.30;5.33;;;;;;;;;;748553;185;883198;-60
2023/08/15 13:08:50;;;;;;;5.40;4.90;;;;;;;;;;737805;185;2002387;-65
2023/08/15 13:11:16;;;;;;;5.73;5.13;;;;;;;;;;746991;185;817109;-65
2023/08/15 13:13:42;;;;;;;8.83;7.20;;;;;;;;;;751343;183;916424;-65
2023/08/15 13:16:09;;;;;;;7.20;5.53;;;;;;;;;;750454;185;818354;-66
2023/08/15 13:18:33;;;;;;;6.10;5.37;;;;;;;;;;749470;184;622604;-66
2023/08/15 13:20:59;;;;;;;5.97;5.37;;;;;;;;;;744525;185;920043;-64
2023/08/15 13:23:25;;;;;;;7.70;5.47;;;;;;;;;;751748;185;917661;-65
2023/08/15 13:25:51;;;;;;;5.60;5.10;;;;;;;;;;747967;185;907809;-66
2023/08/15 13:28:17;;;;;;;7.30;6.27;;;;;;;;;;748708;185;629057;-60
2023/08/15 13:30:43;;;;;;;6.00;5.10;;;;;;;;;;759454;184;618944;-63
2023/08/15 13:33:08;;;;;;;12.50;4.90;;;;;;;;;;748035;184;920185;-59
2023/08/15 13:35:34;;;;;;;6.70;5.30;;;;;;;;;;748759;185;637009;-65
2023/08/15 13:38:01;;;;;;;7.57;5.73;;;;;;;;;;751987;185;855905;-63
2023/08/15 13:40:26;;;;;;;6.87;5.97;;;;;;;;;;745293;184;817643;-60
2023/08/15 13:42:52;;;;;;;7.60;5.33;;;;;;;;;;743438;184;917326;-64
2023/08/15 13:45:18;;;;;;;5.77;4.80;;;;;;;;;;749744;185;916918;-65
2023/08/15 13:47:43;;;;;;;10.63;5.60;;;;;;;;;;743181;185;919635;-66
2023/08/15 13:50:09;;;;;;;6.17;4.80;;;;;;;;;;747369;184;920086;-65
2023/08/15 13:52:36;;;;;;;6.27;5.20;;;;;;;;;;745649;185;1021912;-59
2023/08/15 13:55:01;;;;;;;7.37;5.70;;;;;;;;;;738190;186;913735;-65
2023/08/15 13:57:27;;;;;;;6.03;5.43;;;;;;;;;;740044;186;920217;-59
2023/08/15 13:59:54;;;;;;;7.73;5.77;;;;;;;;;;736735;188;922483;-61
2023/08/15 14:02:18;;;;;;;6.23;5.20;;;;;;;;;;738333;188;927250;-64
2023/08/15 14:04:44;;;;;;;5.70;5.10;;;;;;;;;;741056;187;915628;-61
2023/08/15 14:07:10;;;;;;;5.80;4.97;;;;;;;;;;756297;182;715593;-60
2023/08/15 14:09:36;;;;;;;6.80;5.60;;;;;;;;;;757987;185;917196;-65
2023/08/15 14:12:03;;;;;;;8.13;6.00;;;;;;;;;;740682;183;817273;-65
2023/08/15 14:14:28;;;;;;;9.40;5.43;;;;;;;;;;740205;186;817124;-64
2023/08/15 14:16:54;;;;;;;6.57;5.30;;;;;;;;;;737190;186;906082;-63
2023/08/15 14:19:19;;;;;;;7.87;5.43;;;;;;;;;;742946;186;917624;-60